sensor_id;sensor_type;location;lat;lon;timestamp;temperature;humidity
32506;DHT22;18955;51.224;8.482;2023-05-10T00:01:04;14.00;88.50
32506;DHT22;18955;51.224;8.482;2023-05-10T00:03:30;13.90;88.40
32506;DHT22;18955;51.224;8.482;2023-05-10T00:05:56;13.90;88.50
32506;DHT22;18955;51.224;8.482;2023-05-10T00:08:22;13.90;88.30
32506;DHT22;18955;51.224;8.482;2023-05-10T00:10:48;13.90;88.30
32506;DHT22;18955;51.224;8.482;2023-05-10T00:13:15;13.90;88.40
32506;DHT22;18955;51.224;8.482;2023-05-10T00:15:41;13.90;88.40
32506;DHT22;18955;51.224;8.482;2023-05-10T00:18:07;14.00;88.50
32506;DHT22;18955;51.224;8.482;2023-05-10T00:20:33;13.80;88.40
32506;DHT22;18955;51.224;8.482;2023-05-10T00:22:59;13.80;88.40
32506;DHT22;18955;51.224;8.482;2023-05-10T00:25:25;13.80;88.40
32506;DHT22;18955;51.224;8.482;2023-05-10T00:27:51;13.80;88.40
32506;DHT22;18955;51.224;8.482;2023-05-10T00:30:17;13.80;88.60
32506;DHT22;18955;51.224;8.482;2023-05-10T00:32:43;13.80;88.30
32506;DHT22;18955;51.224;8.482;2023-05-10T00:35:09;13.80;88.30
32506;DHT22;18955;51.224;8.482;2023-05-10T00:37:35;13.80;88.40
32506;DHT22;18955;51.224;8.482;2023-05-10T00:40:01;13.80;88.40
32506;DHT22;18955;51.224;8.482;2023-05-10T00:42:27;13.70;88.30
32506;DHT22;18955;51.224;8.482;2023-05-10T00:44:54;13.70;88.40
32506;DHT22;18955;51.224;8.482;2023-05-10T00:47:21;13.70;88.40
32506;DHT22;18955;51.224;8.482;2023-05-10T00:49:47;13.70;88.40
32506;DHT22;18955;51.224;8.482;2023-05-10T00:52:13;13.70;88.40
32506;DHT22;18955;51.224;8.482;2023-05-10T00:54:40;13.70;88.50
32506;DHT22;18955;51.224;8.482;2023-05-10T00:57:06;13.70;88.90
32506;DHT22;18955;51.224;8.482;2023-05-10T00:59:33;13.70;88.30
32506;DHT22;18955;51.224;8.482;2023-05-10T01:01:59;13.70;88.30
32506;DHT22;18955;51.224;8.482;2023-05-10T01:04:25;13.70;88.30
32506;DHT22;18955;51.224;8.482;2023-05-10T01:06:51;13.70;88.30
32506;DHT22;18955;51.224;8.482;2023-05-10T01:09:18;13.70;88.40
32506;DHT22;18955;51.224;8.482;2023-05-10T01:11:44;13.60;88.30
32506;DHT22;18955;51.224;8.482;2023-05-10T01:14:11;13.60;88.40
32506;DHT22;18955;51.224;8.482;2023-05-10T01:16:37;13.60;88.50
32506;DHT22;18955;51.224;8.482;2023-05-10T01:19:04;13.60;88.30
32506;DHT22;18955;51.224;8.482;2023-05-10T01:21:35;13.60;88.30
32506;DHT22;18955;51.224;8.482;2023-05-10T01:24:25;13.60;88.30
32506;DHT22;18955;51.224;8.482;2023-05-10T01:32:21;13.50;88.30
32506;DHT22;18955;51.224;8.482;2023-05-10T01:35:01;13.50;88.30
32506;DHT22;18955;51.224;8.482;2023-05-10T01:40:30;13.50;88.40
32506;DHT22;18955;51.224;8.482;2023-05-10T01:43:04;13.50;88.40
32506;DHT22;18955;51.224;8.482;2023-05-10T01:48:06;13.50;88.30
32506;DHT22;18955;51.224;8.482;2023-05-10T01:50:33;13.50;88.40
32506;DHT22;18955;51.224;8.482;2023-05-10T01:53:00;13.50;88.30
32506;DHT22;18955;51.224;8.482;2023-05-10T01:55:32;13.50;88.30
32506;DHT22;18955;51.224;8.482;2023-05-10T01:58:00;13.40;88.30
32506;DHT22;18955;51.224;8.482;2023-05-10T02:00:28;13.40;88.30
32506;DHT22;18955;51.224;8.482;2023-05-10T02:02:54;13.40;88.30
32506;DHT22;18955;51.224;8.482;2023-05-10T02:05:21;13.40;88.40
32506;DHT22;18955;51.224;8.482;2023-05-10T02:07:47;13.40;88.30
32506;DHT22;18955;51.224;8.482;2023-05-10T02:10:14;13.40;88.20
32506;DHT22;18955;51.224;8.482;2023-05-10T02:12:42;13.40;88.30
32506;DHT22;18955;51.224;8.482;2023-05-10T02:15:10;13.40;88.30
32506;DHT22;18955;51.224;8.482;2023-05-10T02:17:37;13.30;88.30
32506;DHT22;18955;51.224;8.482;2023-05-10T02:20:04;13.30;88.30
32506;DHT22;18955;51.224;8.482;2023-05-10T02:22:32;13.30;88.30
32506;DHT22;18955;51.224;8.482;2023-05-10T02:24:59;13.30;88.30
32506;DHT22;18955;51.224;8.482;2023-05-10T02:27:27;13.30;88.30
32506;DHT22;18955;51.224;8.482;2023-05-10T02:29:54;13.30;88.40
32506;DHT22;18955;51.224;8.482;2023-05-10T02:32:22;13.30;88.20
32506;DHT22;18955;51.224;8.482;2023-05-10T02:34:49;13.30;88.30
32506;DHT22;18955;51.224;8.482;2023-05-10T02:37:18;13.30;88.30
32506;DHT22;18955;51.224;8.482;2023-05-10T02:39:46;13.30;88.30
32506;DHT22;18955;51.224;8.482;2023-05-10T02:42:20;13.20;88.70
32506;DHT22;18955;51.224;8.482;2023-05-10T02:44:48;13.30;88.30
32506;DHT22;18955;51.224;8.482;2023-05-10T02:47:15;13.20;88.30
32506;DHT22;18955;51.224;8.482;2023-05-10T02:49:41;13.20;88.30
32506;DHT22;18955;51.224;8.482;2023-05-10T02:52:08;13.20;88.30
32506;DHT22;18955;51.224;8.482;2023-05-10T02:54:39;13.20;88.50
32506;DHT22;18955;51.224;8.482;2023-05-10T02:57:07;13.20;88.30
32506;DHT22;18955;51.224;8.482;2023-05-10T02:59:33;13.20;88.20
32506;DHT22;18955;51.224;8.482;2023-05-10T03:01:59;13.20;88.30
32506;DHT22;18955;51.224;8.482;2023-05-10T03:04:26;13.20;88.20
32506;DHT22;18955;51.224;8.482;2023-05-10T03:06:57;13.10;88.20
32506;DHT22;18955;51.224;8.482;2023-05-10T03:09:23;13.10;88.20
32506;DHT22;18955;51.224;8.482;2023-05-10T03:16:56;13.10;88.80
32506;DHT22;18955;51.224;8.482;2023-05-10T03:19:32;13.10;88.40
32506;DHT22;18955;51.224;8.482;2023-05-10T03:22:03;13.00;88.10
32506;DHT22;18955;51.224;8.482;2023-05-10T03:24:33;13.00;88.20
32506;DHT22;18955;51.224;8.482;2023-05-10T03:27:01;13.00;88.10
32506;DHT22;18955;51.224;8.482;2023-05-10T03:29:28;13.00;88.10
32506;DHT22;18955;51.224;8.482;2023-05-10T03:31:55;13.00;88.20
32506;DHT22;18955;51.224;8.482;2023-05-10T03:34:24;13.00;88.10
32506;DHT22;18955;51.224;8.482;2023-05-10T03:36:51;13.00;88.10
32506;DHT22;18955;51.224;8.482;2023-05-10T03:41:42;12.90;87.80
32506;DHT22;18955;51.224;8.482;2023-05-10T03:44:09;12.90;88.30
32506;DHT22;18955;51.224;8.482;2023-05-10T03:46:35;12.90;88.10
32506;DHT22;18955;51.224;8.482;2023-05-10T03:49:02;12.90;88.10
32506;DHT22;18955;51.224;8.482;2023-05-10T03:51:28;12.90;88.10
32506;DHT22;18955;51.224;8.482;2023-05-10T03:53:54;12.90;88.20
32506;DHT22;18955;51.224;8.482;2023-05-10T03:56:21;12.90;88.20
32506;DHT22;18955;51.224;8.482;2023-05-10T03:58:48;12.90;88.20
32506;DHT22;18955;51.224;8.482;2023-05-10T04:01:14;12.90;88.20
32506;DHT22;18955;51.224;8.482;2023-05-10T04:03:40;12.90;88.20
32506;DHT22;18955;51.224;8.482;2023-05-10T04:06:07;12.90;88.20
32506;DHT22;18955;51.224;8.482;2023-05-10T04:08:35;12.90;88.40
32506;DHT22;18955;51.224;8.482;2023-05-10T04:11:05;12.80;88.10
32506;DHT22;18955;51.224;8.482;2023-05-10T04:13:32;12.80;88.10
32506;DHT22;18955;51.224;8.482;2023-05-10T04:15:59;12.80;88.10
32506;DHT22;18955;51.224;8.482;2023-05-10T04:18:25;12.80;88.10
32506;DHT22;18955;51.224;8.482;2023-05-10T04:20:51;12.80;88.10
32506;DHT22;18955;51.224;8.482;2023-05-10T04:23:18;12.80;88.20
32506;DHT22;18955;51.224;8.482;2023-05-10T04:25:44;12.80;88.10
32506;DHT22;18955;51.224;8.482;2023-05-10T04:28:10;12.80;88.20
32506;DHT22;18955;51.224;8.482;2023-05-10T04:30:36;12.70;88.20
32506;DHT22;18955;51.224;8.482;2023-05-10T04:33:03;12.70;88.30
32506;DHT22;18955;51.224;8.482;2023-05-10T04:35:29;12.70;88.10
32506;DHT22;18955;51.224;8.482;2023-05-10T04:37:56;12.70;88.10
32506;DHT22;18955;51.224;8.482;2023-05-10T04:40:22;12.70;88.10
32506;DHT22;18955;51.224;8.482;2023-05-10T04:42:48;12.70;88.00
32506;DHT22;18955;51.224;8.482;2023-05-10T04:45:14;12.70;88.10
32506;DHT22;18955;51.224;8.482;2023-05-10T04:47:41;12.70;88.10
32506;DHT22;18955;51.224;8.482;2023-05-10T04:50:07;12.70;88.20
32506;DHT22;18955;51.224;8.482;2023-05-10T04:52:34;12.60;88.10
32506;DHT22;18955;51.224;8.482;2023-05-10T04:55:00;12.60;88.20
32506;DHT22;18955;51.224;8.482;2023-05-10T04:57:26;12.60;88.20
32506;DHT22;18955;51.224;8.482;2023-05-10T04:59:52;12.60;88.10
32506;DHT22;18955;51.224;8.482;2023-05-10T05:02:18;12.60;88.00
32506;DHT22;18955;51.224;8.482;2023-05-10T05:04:45;12.60;88.10
32506;DHT22;18955;51.224;8.482;2023-05-10T05:07:11;12.60;88.10
32506;DHT22;18955;51.224;8.482;2023-05-10T05:09:37;12.60;88.10
32506;DHT22;18955;51.224;8.482;2023-05-10T05:12:03;12.50;88.00
32506;DHT22;18955;51.224;8.482;2023-05-10T05:14:30;12.60;88.10
32506;DHT22;18955;51.224;8.482;2023-05-10T05:16:56;12.50;88.10
32506;DHT22;18955;51.224;8.482;2023-05-10T05:19:23;12.50;88.10
32506;DHT22;18955;51.224;8.482;2023-05-10T05:21:49;12.50;88.20
32506;DHT22;18955;51.224;8.482;2023-05-10T05:24:15;12.50;88.20
32506;DHT22;18955;51.224;8.482;2023-05-10T05:26:41;12.50;88.10
32506;DHT22;18955;51.224;8.482;2023-05-10T05:29:08;12.50;88.00
32506;DHT22;18955;51.224;8.482;2023-05-10T05:31:34;12.50;88.10
32506;DHT22;18955;51.224;8.482;2023-05-10T05:34:00;12.50;88.10
32506;DHT22;18955;51.224;8.482;2023-05-10T05:36:26;12.50;88.00
32506;DHT22;18955;51.224;8.482;2023-05-10T05:38:53;12.50;88.10
32506;DHT22;18955;51.224;8.482;2023-05-10T05:41:19;12.40;88.00
32506;DHT22;18955;51.224;8.482;2023-05-10T05:43:45;12.50;88.10
32506;DHT22;18955;51.224;8.482;2023-05-10T05:46:12;12.40;88.10
32506;DHT22;18955;51.224;8.482;2023-05-10T05:48:38;12.50;88.30
32506;DHT22;18955;51.224;8.482;2023-05-10T05:51:04;12.50;88.10
32506;DHT22;18955;51.224;8.482;2023-05-10T05:53:30;12.40;88.00
32506;DHT22;18955;51.224;8.482;2023-05-10T05:55:58;12.40;88.10
32506;DHT22;18955;51.224;8.482;2023-05-10T05:58:25;12.40;88.00
32506;DHT22;18955;51.224;8.482;2023-05-10T06:00:51;12.40;88.00
32506;DHT22;18955;51.224;8.482;2023-05-10T06:03:18;12.40;88.00
32506;DHT22;18955;51.224;8.482;2023-05-10T06:05:45;12.40;88.00
32506;DHT22;18955;51.224;8.482;2023-05-10T06:08:11;12.40;88.00
32506;DHT22;18955;51.224;8.482;2023-05-10T06:10:37;12.40;88.00
32506;DHT22;18955;51.224;8.482;2023-05-10T06:13:04;12.40;88.10
32506;DHT22;18955;51.224;8.482;2023-05-10T06:15:30;12.40;88.10
32506;DHT22;18955;51.224;8.482;2023-05-10T06:17:56;12.40;88.00
32506;DHT22;18955;51.224;8.482;2023-05-10T06:20:22;12.30;88.00
32506;DHT22;18955;51.224;8.482;2023-05-10T06:22:49;12.40;88.00
32506;DHT22;18955;51.224;8.482;2023-05-10T06:25:15;12.30;88.00
32506;DHT22;18955;51.224;8.482;2023-05-10T06:27:44;12.30;88.10
32506;DHT22;18955;51.224;8.482;2023-05-10T06:30:10;12.30;88.10
32506;DHT22;18955;51.224;8.482;2023-05-10T06:32:39;12.30;88.10
32506;DHT22;18955;51.224;8.482;2023-05-10T06:35:06;12.30;88.10
32506;DHT22;18955;51.224;8.482;2023-05-10T06:37:32;12.30;88.20
32506;DHT22;18955;51.224;8.482;2023-05-10T06:39:58;12.30;88.20
32506;DHT22;18955;51.224;8.482;2023-05-10T06:42:24;12.30;88.00
32506;DHT22;18955;51.224;8.482;2023-05-10T06:44:51;12.30;88.00
32506;DHT22;18955;51.224;8.482;2023-05-10T06:47:18;12.30;88.00
32506;DHT22;18955;51.224;8.482;2023-05-10T06:49:44;12.30;88.60
32506;DHT22;18955;51.224;8.482;2023-05-10T06:52:10;12.30;88.00
32506;DHT22;18955;51.224;8.482;2023-05-10T06:54:36;12.30;88.10
32506;DHT22;18955;51.224;8.482;2023-05-10T06:57:03;12.30;88.10
32506;DHT22;18955;51.224;8.482;2023-05-10T06:59:29;12.30;88.00
32506;DHT22;18955;51.224;8.482;2023-05-10T07:01:56;12.20;88.10
32506;DHT22;18955;51.224;8.482;2023-05-10T07:04:22;12.20;88.20
32506;DHT22;18955;51.224;8.482;2023-05-10T07:06:48;12.20;88.10
32506;DHT22;18955;51.224;8.482;2023-05-10T07:09:15;12.20;88.00
32506;DHT22;18955;51.224;8.482;2023-05-10T07:11:41;12.30;88.00
32506;DHT22;18955;51.224;8.482;2023-05-10T07:14:08;12.30;88.00
32506;DHT22;18955;51.224;8.482;2023-05-10T07:16:34;12.20;87.90
32506;DHT22;18955;51.224;8.482;2023-05-10T07:19:00;12.30;88.10
32506;DHT22;18955;51.224;8.482;2023-05-10T07:21:28;12.20;88.00
32506;DHT22;18955;51.224;8.482;2023-05-10T07:23:54;12.20;88.00
32506;DHT22;18955;51.224;8.482;2023-05-10T07:26:21;12.20;88.00
32506;DHT22;18955;51.224;8.482;2023-05-10T07:28:47;12.20;88.00
32506;DHT22;18955;51.224;8.482;2023-05-10T07:31:13;12.20;88.00
32506;DHT22;18955;51.224;8.482;2023-05-10T07:33:40;12.20;88.00
32506;DHT22;18955;51.224;8.482;2023-05-10T07:36:06;12.20;88.00
32506;DHT22;18955;51.224;8.482;2023-05-10T07:38:33;12.20;88.00
32506;DHT22;18955;51.224;8.482;2023-05-10T07:40:59;12.20;88.00
32506;DHT22;18955;51.224;8.482;2023-05-10T07:43:25;12.20;88.00
32506;DHT22;18955;51.224;8.482;2023-05-10T07:45:51;12.20;88.00
32506;DHT22;18955;51.224;8.482;2023-05-10T07:48:17;12.20;87.90
32506;DHT22;18955;51.224;8.482;2023-05-10T07:50:44;12.20;88.00
32506;DHT22;18955;51.224;8.482;2023-05-10T07:53:10;12.20;88.00
32506;DHT22;18955;51.224;8.482;2023-05-10T07:55:36;12.20;87.80
32506;DHT22;18955;51.224;8.482;2023-05-10T07:58:02;12.30;87.90
32506;DHT22;18955;51.224;8.482;2023-05-10T08:00:29;12.30;87.80
32506;DHT22;18955;51.224;8.482;2023-05-10T08:02:55;12.30;87.80
32506;DHT22;18955;51.224;8.482;2023-05-10T08:05:22;12.30;87.70
32506;DHT22;18955;51.224;8.482;2023-05-10T08:07:48;12.30;87.70
32506;DHT22;18955;51.224;8.482;2023-05-10T08:10:14;12.30;87.60
32506;DHT22;18955;51.224;8.482;2023-05-10T08:12:40;12.30;87.60
32506;DHT22;18955;51.224;8.482;2023-05-10T08:15:07;12.40;87.60
32506;DHT22;18955;51.224;8.482;2023-05-10T08:17:34;12.40;87.60
32506;DHT22;18955;51.224;8.482;2023-05-10T08:20:00;12.40;87.60
32506;DHT22;18955;51.224;8.482;2023-05-10T08:22:27;12.40;87.60
32506;DHT22;18955;51.224;8.482;2023-05-10T08:24:53;12.40;87.50
32506;DHT22;18955;51.224;8.482;2023-05-10T08:27:19;12.40;87.50
32506;DHT22;18955;51.224;8.482;2023-05-10T08:29:45;12.40;87.50
32506;DHT22;18955;51.224;8.482;2023-05-10T08:32:11;12.40;87.50
32506;DHT22;18955;51.224;8.482;2023-05-10T08:34:38;12.40;87.50
32506;DHT22;18955;51.224;8.482;2023-05-10T08:37:04;12.40;87.50
32506;DHT22;18955;51.224;8.482;2023-05-10T08:39:34;12.40;87.50
32506;DHT22;18955;51.224;8.482;2023-05-10T08:42:03;12.40;87.60
32506;DHT22;18955;51.224;8.482;2023-05-10T08:44:32;12.50;87.60
32506;DHT22;18955;51.224;8.482;2023-05-10T08:47:04;12.40;87.50
32506;DHT22;18955;51.224;8.482;2023-05-10T08:49:32;12.50;87.60
32506;DHT22;18955;51.224;8.482;2023-05-10T08:52:02;12.50;87.60
32506;DHT22;18955;51.224;8.482;2023-05-10T08:54:31;12.50;87.50
32506;DHT22;18955;51.224;8.482;2023-05-10T08:56:57;12.50;87.50
32506;DHT22;18955;51.224;8.482;2023-05-10T08:59:24;12.50;87.50
32506;DHT22;18955;51.224;8.482;2023-05-10T09:01:50;12.60;87.60
32506;DHT22;18955;51.224;8.482;2023-05-10T09:04:17;12.60;87.60
32506;DHT22;18955;51.224;8.482;2023-05-10T09:06:43;12.60;87.50
32506;DHT22;18955;51.224;8.482;2023-05-10T09:09:09;12.60;87.50
32506;DHT22;18955;51.224;8.482;2023-05-10T09:11:36;12.60;87.50
32506;DHT22;18955;51.224;8.482;2023-05-10T09:14:02;12.60;87.50
32506;DHT22;18955;51.224;8.482;2023-05-10T09:16:29;12.70;87.50
32506;DHT22;18955;51.224;8.482;2023-05-10T09:18:56;12.60;87.50
32506;DHT22;18955;51.224;8.482;2023-05-10T09:21:22;12.60;87.50
32506;DHT22;18955;51.224;8.482;2023-05-10T09:23:48;12.60;87.50
32506;DHT22;18955;51.224;8.482;2023-05-10T09:26:15;12.60;87.50
32506;DHT22;18955;51.224;8.482;2023-05-10T09:28:54;12.60;87.60
32506;DHT22;18955;51.224;8.482;2023-05-10T09:31:22;12.60;87.70
32506;DHT22;18955;51.224;8.482;2023-05-10T09:33:48;12.60;88.30
32506;DHT22;18955;51.224;8.482;2023-05-10T09:36:15;12.60;87.70
32506;DHT22;18955;51.224;8.482;2023-05-10T09:38:44;12.60;87.70
32506;DHT22;18955;51.224;8.482;2023-05-10T09:41:37;12.70;87.80
32506;DHT22;18955;51.224;8.482;2023-05-10T09:44:03;12.70;87.70
32506;DHT22;18955;51.224;8.482;2023-05-10T09:46:30;12.70;87.70
32506;DHT22;18955;51.224;8.482;2023-05-10T09:49:01;12.70;87.70
32506;DHT22;18955;51.224;8.482;2023-05-10T09:51:27;12.80;87.70
32506;DHT22;18955;51.224;8.482;2023-05-10T09:54:10;12.80;87.70
32506;DHT22;18955;51.224;8.482;2023-05-10T09:56:37;12.80;87.70
32506;DHT22;18955;51.224;8.482;2023-05-10T09:59:05;12.80;87.70
32506;DHT22;18955;51.224;8.482;2023-05-10T10:01:33;12.80;87.70
32506;DHT22;18955;51.224;8.482;2023-05-10T10:03:59;12.80;87.80
32506;DHT22;18955;51.224;8.482;2023-05-10T10:06:28;12.80;87.80
32506;DHT22;18955;51.224;8.482;2023-05-10T10:08:54;12.80;87.70
32506;DHT22;18955;51.224;8.482;2023-05-10T10:11:21;12.90;87.70
32506;DHT22;18955;51.224;8.482;2023-05-10T10:13:47;12.90;87.70
32506;DHT22;18955;51.224;8.482;2023-05-10T10:16:13;12.90;87.70
32506;DHT22;18955;51.224;8.482;2023-05-10T10:18:39;12.90;87.70
32506;DHT22;18955;51.224;8.482;2023-05-10T10:21:06;12.90;87.70
32506;DHT22;18955;51.224;8.482;2023-05-10T10:23:35;12.90;87.70
32506;DHT22;18955;51.224;8.482;2023-05-10T10:26:03;13.00;87.70
32506;DHT22;18955;51.224;8.482;2023-05-10T10:28:54;13.00;87.70
32506;DHT22;18955;51.224;8.482;2023-05-10T10:31:36;13.00;87.60
32506;DHT22;18955;51.224;8.482;2023-05-10T10:34:25;13.00;87.60
32506;DHT22;18955;51.224;8.482;2023-05-10T10:36:52;13.00;87.60
32506;DHT22;18955;51.224;8.482;2023-05-10T10:39:20;13.10;87.60
32506;DHT22;18955;51.224;8.482;2023-05-10T10:41:52;13.10;87.60
32506;DHT22;18955;51.224;8.482;2023-05-10T10:47:07;13.10;87.60
32506;DHT22;18955;51.224;8.482;2023-05-10T10:50:08;13.20;87.60
32506;DHT22;18955;51.224;8.482;2023-05-10T10:52:39;13.20;87.60
32506;DHT22;18955;51.224;8.482;2023-05-10T11:05:37;13.30;87.60
32506;DHT22;18955;51.224;8.482;2023-05-10T11:08:20;13.30;87.60
32506;DHT22;18955;51.224;8.482;2023-05-10T11:10:53;13.30;87.60
32506;DHT22;18955;51.224;8.482;2023-05-10T11:16:21;13.30;87.60
32506;DHT22;18955;51.224;8.482;2023-05-10T11:19:05;13.40;87.70
32506;DHT22;18955;51.224;8.482;2023-05-10T11:21:33;13.40;87.60
32506;DHT22;18955;51.224;8.482;2023-05-10T11:24:00;13.40;87.60
32506;DHT22;18955;51.224;8.482;2023-05-10T11:26:34;13.40;87.60
32506;DHT22;18955;51.224;8.482;2023-05-10T11:29:01;13.50;87.60
32506;DHT22;18955;51.224;8.482;2023-05-10T11:31:29;13.40;87.60
32506;DHT22;18955;51.224;8.482;2023-05-10T11:33:57;13.50;87.60
32506;DHT22;18955;51.224;8.482;2023-05-10T11:36:29;13.50;87.60
32506;DHT22;18955;51.224;8.482;2023-05-10T11:38:56;13.50;87.70
32506;DHT22;18955;51.224;8.482;2023-05-10T11:41:23;13.50;87.70
32506;DHT22;18955;51.224;8.482;2023-05-10T11:43:52;13.60;87.90
32506;DHT22;18955;51.224;8.482;2023-05-10T11:46:23;13.50;87.80
32506;DHT22;18955;51.224;8.482;2023-05-10T11:48:51;13.60;87.80
32506;DHT22;18955;51.224;8.482;2023-05-10T11:51:21;13.60;87.70
32506;DHT22;18955;51.224;8.482;2023-05-10T11:53:49;13.60;87.80
32506;DHT22;18955;51.224;8.482;2023-05-10T11:56:16;13.60;87.80
32506;DHT22;18955;51.224;8.482;2023-05-10T11:58:42;13.60;87.90
32506;DHT22;18955;51.224;8.482;2023-05-10T12:01:09;13.60;87.80
32506;DHT22;18955;51.224;8.482;2023-05-10T12:03:36;13.70;87.90
32506;DHT22;18955;51.224;8.482;2023-05-10T12:06:03;13.70;87.90
32506;DHT22;18955;51.224;8.482;2023-05-10T12:08:30;13.70;87.90
32506;DHT22;18955;51.224;8.482;2023-05-10T12:11:07;13.70;87.90
32506;DHT22;18955;51.224;8.482;2023-05-10T12:13:41;13.70;88.30
32506;DHT22;18955;51.224;8.482;2023-05-10T12:16:15;13.80;87.90
32506;DHT22;18955;51.224;8.482;2023-05-10T12:18:42;13.80;87.80
32506;DHT22;18955;51.224;8.482;2023-05-10T12:21:12;13.80;87.80
32506;DHT22;18955;51.224;8.482;2023-05-10T12:23:39;13.80;87.80
32506;DHT22;18955;51.224;8.482;2023-05-10T12:26:06;13.80;87.80
32506;DHT22;18955;51.224;8.482;2023-05-10T12:28:33;13.80;87.80
32506;DHT22;18955;51.224;8.482;2023-05-10T12:30:59;13.90;87.90
32506;DHT22;18955;51.224;8.482;2023-05-10T12:33:26;13.80;87.90
32506;DHT22;18955;51.224;8.482;2023-05-10T12:35:53;13.90;87.90
32506;DHT22;18955;51.224;8.482;2023-05-10T12:38:39;13.90;87.90
32506;DHT22;18955;51.224;8.482;2023-05-10T12:41:10;13.90;87.90
32506;DHT22;18955;51.224;8.482;2023-05-10T12:43:37;13.90;87.80
32506;DHT22;18955;51.224;8.482;2023-05-10T12:46:14;13.90;87.90
32506;DHT22;18955;51.224;8.482;2023-05-10T12:48:42;13.90;87.90
32506;DHT22;18955;51.224;8.482;2023-05-10T12:51:09;13.90;88.00
32506;DHT22;18955;51.224;8.482;2023-05-10T12:53:38;13.90;88.00
32506;DHT22;18955;51.224;8.482;2023-05-10T12:56:05;13.90;88.00
32506;DHT22;18955;51.224;8.482;2023-05-10T12:58:31;14.00;88.20
32506;DHT22;18955;51.224;8.482;2023-05-10T13:00:58;14.00;88.10
32506;DHT22;18955;51.224;8.482;2023-05-10T13:03:25;14.00;88.20
32506;DHT22;18955;51.224;8.482;2023-05-10T13:05:51;14.00;88.20
32506;DHT22;18955;51.224;8.482;2023-05-10T13:08:17;14.00;88.20
32506;DHT22;18955;51.224;8.482;2023-05-10T13:10:43;14.00;88.20
32506;DHT22;18955;51.224;8.482;2023-05-10T13:13:10;14.00;88.20
32506;DHT22;18955;51.224;8.482;2023-05-10T13:15:36;14.00;88.20
32506;DHT22;18955;51.224;8.482;2023-05-10T13:18:03;14.00;88.20
32506;DHT22;18955;51.224;8.482;2023-05-10T13:20:29;14.10;88.20
32506;DHT22;18955;51.224;8.482;2023-05-10T13:22:55;14.10;88.20
32506;DHT22;18955;51.224;8.482;2023-05-10T13:25:21;14.10;88.20
32506;DHT22;18955;51.224;8.482;2023-05-10T13:27:48;14.10;88.20
32506;DHT22;18955;51.224;8.482;2023-05-10T13:30:14;14.10;88.10
32506;DHT22;18955;51.224;8.482;2023-05-10T13:32:40;14.20;88.10
32506;DHT22;18955;51.224;8.482;2023-05-10T13:35:07;14.20;88.10
32506;DHT22;18955;51.224;8.482;2023-05-10T13:37:33;14.20;88.20
32506;DHT22;18955;51.224;8.482;2023-05-10T13:40:03;14.20;88.20
32506;DHT22;18955;51.224;8.482;2023-05-10T13:42:30;14.20;88.20
32506;DHT22;18955;51.224;8.482;2023-05-10T13:44:57;14.20;88.20
32506;DHT22;18955;51.224;8.482;2023-05-10T13:47:24;14.10;88.20
32506;DHT22;18955;51.224;8.482;2023-05-10T13:49:50;14.20;88.30
32506;DHT22;18955;51.224;8.482;2023-05-10T13:52:16;14.20;88.40
32506;DHT22;18955;51.224;8.482;2023-05-10T13:54:42;14.20;88.50
32506;DHT22;18955;51.224;8.482;2023-05-10T13:57:08;14.20;88.50
32506;DHT22;18955;51.224;8.482;2023-05-10T13:59:35;14.20;88.50
32506;DHT22;18955;51.224;8.482;2023-05-10T14:02:01;14.20;88.50
32506;DHT22;18955;51.224;8.482;2023-05-10T14:04:30;14.20;88.60
32506;DHT22;18955;51.224;8.482;2023-05-10T14:06:57;14.20;88.60
32506;DHT22;18955;51.224;8.482;2023-05-10T14:09:23;14.20;88.60
32506;DHT22;18955;51.224;8.482;2023-05-10T14:11:49;14.20;88.60
32506;DHT22;18955;51.224;8.482;2023-05-10T14:14:16;14.20;88.60
32506;DHT22;18955;51.224;8.482;2023-05-10T14:16:44;14.20;88.60
32506;DHT22;18955;51.224;8.482;2023-05-10T14:19:10;14.20;88.60
32506;DHT22;18955;51.224;8.482;2023-05-10T14:21:37;14.20;88.70
32506;DHT22;18955;51.224;8.482;2023-05-10T14:24:03;14.30;88.60
32506;DHT22;18955;51.224;8.482;2023-05-10T14:26:30;14.30;88.50
32506;DHT22;18955;51.224;8.482;2023-05-10T14:28:57;14.30;88.50
32506;DHT22;18955;51.224;8.482;2023-05-10T14:31:23;14.30;88.40
32506;DHT22;18955;51.224;8.482;2023-05-10T14:33:51;14.30;88.40
32506;DHT22;18955;51.224;8.482;2023-05-10T14:36:17;14.30;88.40
32506;DHT22;18955;51.224;8.482;2023-05-10T14:38:44;14.30;88.40
32506;DHT22;18955;51.224;8.482;2023-05-10T14:41:10;14.30;88.40
32506;DHT22;18955;51.224;8.482;2023-05-10T14:43:40;14.30;88.40
32506;DHT22;18955;51.224;8.482;2023-05-10T14:46:07;14.30;89.00
32506;DHT22;18955;51.224;8.482;2023-05-10T14:48:33;14.30;88.40
32506;DHT22;18955;51.224;8.482;2023-05-10T14:50:59;14.30;88.40
32506;DHT22;18955;51.224;8.482;2023-05-10T14:53:25;14.30;88.40
32506;DHT22;18955;51.224;8.482;2023-05-10T14:55:52;14.30;88.40
32506;DHT22;18955;51.224;8.482;2023-05-10T14:58:18;14.30;88.40
32506;DHT22;18955;51.224;8.482;2023-05-10T15:00:44;14.40;88.40
32506;DHT22;18955;51.224;8.482;2023-05-10T15:03:10;14.30;88.30
32506;DHT22;18955;51.224;8.482;2023-05-10T15:05:36;14.30;88.40
32506;DHT22;18955;51.224;8.482;2023-05-10T15:08:04;14.30;88.40
32506;DHT22;18955;51.224;8.482;2023-05-10T15:10:31;14.30;88.30
32506;DHT22;18955;51.224;8.482;2023-05-10T15:12:59;14.40;88.40
32506;DHT22;18955;51.224;8.482;2023-05-10T15:15:28;14.40;88.50
32506;DHT22;18955;51.224;8.482;2023-05-10T15:17:54;14.40;88.50
32506;DHT22;18955;51.224;8.482;2023-05-10T15:20:20;14.40;88.50
32506;DHT22;18955;51.224;8.482;2023-05-10T15:22:46;14.40;88.40
32506;DHT22;18955;51.224;8.482;2023-05-10T15:25:13;14.30;88.40
32506;DHT22;18955;51.224;8.482;2023-05-10T15:27:40;14.40;88.40
32506;DHT22;18955;51.224;8.482;2023-05-10T15:30:07;14.40;88.50
32506;DHT22;18955;51.224;8.482;2023-05-10T15:32:33;14.40;88.50
32506;DHT22;18955;51.224;8.482;2023-05-10T15:34:59;14.40;88.50
32506;DHT22;18955;51.224;8.482;2023-05-10T15:37:25;14.40;88.50
32506;DHT22;18955;51.224;8.482;2023-05-10T15:39:52;14.40;88.60
32506;DHT22;18955;51.224;8.482;2023-05-10T15:42:18;14.30;88.50
32506;DHT22;18955;51.224;8.482;2023-05-10T15:44:44;14.30;88.60
32506;DHT22;18955;51.224;8.482;2023-05-10T15:47:11;14.30;88.50
32506;DHT22;18955;51.224;8.482;2023-05-10T15:49:37;14.30;88.50
32506;DHT22;18955;51.224;8.482;2023-05-10T15:52:03;14.40;88.60
32506;DHT22;18955;51.224;8.482;2023-05-10T15:54:29;14.30;88.60
32506;DHT22;18955;51.224;8.482;2023-05-10T15:56:56;14.40;88.70
32506;DHT22;18955;51.224;8.482;2023-05-10T15:59:22;14.40;88.70
32506;DHT22;18955;51.224;8.482;2023-05-10T16:01:49;14.30;88.70
32506;DHT22;18955;51.224;8.482;2023-05-10T16:04:15;14.40;88.70
32506;DHT22;18955;51.224;8.482;2023-05-10T16:06:41;14.30;88.60